Edgewood, Iowa
Current Conditions -  °F | °C
As of 6:15 AM on Tuesday 27 Jan 2015 (Local Time) from KPDC Reporting Station
Overcast Overcast  
Wind Chill: 26°   Ceiling: 2500
Heat Index: 31°   Visibility: 10mi
Dew Point: 22°   Wind: 5mph
Humidity: 69%   Direction: 360°N
Pressure: 30.09"   Gusts: NA
Location:  42.64°N, 91.4°W
Report Text: KPDC 271215Z AUTO 36004KT 10SM OVC025 M01/M06 A3009 RMK AO2 T10061056
Loading
Personal Weather Stations






























Interactive Weather Map New forecast layout! Learn more

10-Day Weather Forecast

Advertisements
Track Severe Weather on mobile